Time;durP1;ratioP1;P1;durP2;ratioP2;P2;SDS_P1;SDS_P2;PMS_P1;PMS_P2;Temp;Humidity;BMP_temperature;BMP_pressure;BME280_temperature;BME280_humidity;BME280_pressure;Samples;Min_cycle;Max_cycle;Signal;HPM_P1;HPM_P2
2023/03/03 00:01:03;;;;;;;29.67;24.02;;;-0.30;99.90;;;;;;5037158;28;20376;-84
2023/03/03 00:03:29;;;;;;;32.03;25.20;;;-0.30;99.90;;;;;;5038529;28;20828;-83
2023/03/03 00:05:55;;;;;;;34.37;26.87;;;-0.30;99.90;;;;;;5036755;28;20420;-81
2023/03/03 00:08:21;;;;;;;35.13;27.43;;;-0.40;99.90;;;;;;5036297;28;20388;-81
2023/03/03 00:10:48;;;;;;;37.17;28.98;;;-0.40;99.90;;;;;;5037352;28;20896;-80
2023/03/03 00:13:26;;;;;;;37.15;29.10;;;-0.50;99.90;;;;;;5035163;28;20474;-81
2023/03/03 00:15:53;;;;;;;34.78;27.95;;;-0.70;99.90;;;;;;5068890;28;20796;-80
2023/03/03 00:18:31;;;;;;;34.92;27.63;;;-0.40;99.90;;;;;;5068841;28;20373;-82
2023/03/03 00:20:59;;;;;;;35.78;28.77;;;-0.40;99.90;;;;;;5070652;28;20448;-82
2023/03/03 00:23:41;;;;;;;34.50;27.60;;;-0.30;99.90;;;;;;5070477;28;20381;-81
2023/03/03 00:26:29;;;;;;;32.85;26.52;;;-0.20;99.90;;;;;;5041483;28;20903;-83
2023/03/03 00:28:55;;;;;;;30.73;25.02;;;-0.20;99.90;;;;;;5037365;28;20474;-81
2023/03/03 00:31:35;;;;;;;30.83;25.98;;;-0.10;99.90;;;;;;5030231;28;20398;-81
2023/03/03 00:34:25;;;;;;;32.33;26.00;;;-0.20;99.90;;;;;;5037886;28;20403;-80
2023/03/03 00:36:58;;;;;;;31.95;25.92;;;-0.40;99.90;;;;;;5026161;28;20504;-84
2023/03/03 00:39:37;;;;;;;32.13;25.88;;;-0.50;99.90;;;;;;5032517;28;20387;-82
2023/03/03 00:42:14;;;;;;;32.05;25.80;;;-0.50;99.90;;;;;;5049965;28;20483;-80
2023/03/03 00:44:42;;;;;;;31.98;25.67;;;-0.50;99.90;;;;;;5049877;28;20788;-81
2023/03/03 00:47:26;;;;;;;32.85;26.98;;;-0.50;99.90;;;;;;5049372;28;20703;-81
2023/03/03 00:49:54;;;;;;;32.50;26.77;;;-0.40;99.90;;;;;;5048971;28;20411;-81
2023/03/03 00:52:20;;;;;;;34.80;27.63;;;-0.30;99.90;;;;;;5050166;28;20459;-81
2023/03/03 00:54:46;;;;;;;31.53;26.30;;;-0.40;99.90;;;;;;5050311;28;20495;-80
2023/03/03 00:57:12;;;;;;;33.72;27.05;;;-0.40;99.90;;;;;;5050250;28;20408;-82
2023/03/03 00:59:38;;;;;;;32.28;25.88;;;-0.20;99.90;;;;;;5049759;28;20434;-84
2023/03/03 01:02:05;;;;;;;30.58;25.23;;;-0.40;99.90;;;;;;5050237;28;20380;-80
2023/03/03 01:04:31;;;;;;;29.30;25.13;;;-0.10;99.90;;;;;;5042873;28;20426;-80
2023/03/03 01:06:56;;;;;;;32.83;26.70;;;-0.20;99.90;;;;;;5043385;28;20417;-82
2023/03/03 01:09:22;;;;;;;30.60;25.33;;;-0.30;99.90;;;;;;5291422;22;20419;-81
2023/03/03 01:11:49;;;;;;;32.77;25.97;;;-0.30;99.90;;;;;;5019830;28;20507;-81
2023/03/03 01:14:14;;;;;;;34.97;26.48;;;-0.30;99.90;;;;;;5023777;28;20393;-79
2023/03/03 01:16:40;;;;;;;33.00;26.48;;;-0.10;99.90;;;;;;5030370;28;20417;-83
2023/03/03 01:19:06;;;;;;;32.15;26.20;;;-0.30;99.90;;;;;;5019267;28;20387;-82
2023/03/03 01:21:32;;;;;;;30.90;25.30;;;-0.20;99.90;;;;;;5011091;28;20454;-80
2023/03/03 01:23:58;;;;;;;33.30;26.20;;;-0.20;99.90;;;;;;5009926;28;20442;-80
2023/03/03 01:26:24;;;;;;;32.70;25.97;;;-0.10;99.90;;;;;;5010482;28;20466;-80
2023/03/03 01:28:49;;;;;;;31.00;25.30;;;0.00;99.90;;;;;;5033821;28;20390;-82
2023/03/03 01:31:15;;;;;;;31.83;26.20;;;-0.10;99.90;;;;;;5030728;28;20400;-82
2023/03/03 01:33:42;;;;;;;29.90;25.27;;;-0.10;99.90;;;;;;5030822;28;20400;-80
2023/03/03 01:36:08;;;;;;;29.57;24.83;;;0.10;99.90;;;;;;5018394;28;20411;-79
2023/03/03 01:38:38;;;;;;;28.85;24.20;;;0.10;99.90;;;;;;5010684;28;20383;-84
2023/03/03 01:41:04;;;;;;;30.60;24.90;;;0.00;99.90;;;;;;5009888;28;20372;-82
2023/03/03 01:43:31;;;;;;;29.98;24.45;;;0.00;99.90;;;;;;5016938;28;20410;-83
2023/03/03 01:45:56;;;;;;;31.75;25.50;;;0.00;99.90;;;;;;5022858;28;20412;-83
2023/03/03 01:48:29;;;;;;;29.90;24.27;;;-0.10;99.90;;;;;;5025163;28;20486;-84
2023/03/03 01:51:00;;;;;;;29.92;24.45;;;0.00;99.90;;;;;;5026405;28;20393;-81
2023/03/03 01:53:47;;;;;;;30.30;24.27;;;0.00;99.90;;;;;;5023680;28;20411;-84
2023/03/03 01:56:13;;;;;;;30.60;24.55;;;0.20;99.90;;;;;;5039631;28;20407;-80
2023/03/03 01:58:45;;;;;;;30.48;24.77;;;0.20;99.90;;;;;;5048574;28;20707;-80
2023/03/03 02:01:15;;;;;;;30.95;24.55;;;0.00;99.90;;;;;;5029764;28;20417;-82
2023/03/03 02:03:42;;;;;;;29.05;24.40;;;0.10;99.90;;;;;;5028589;28;20389;-80
2023/03/03 02:06:15;;;;;;;31.20;25.10;;;0.10;99.90;;;;;;5030324;28;20416;-82
2023/03/03 02:08:58;;;;;;;30.52;25.15;;;0.10;99.90;;;;;;5027902;28;20389;-80
2023/03/03 02:11:25;;;;;;;32.78;25.88;;;0.10;99.90;;;;;;5022955;28;20730;-82
2023/03/03 02:13:51;;;;;;;32.83;25.95;;;0.30;99.90;;;;;;5050295;28;20451;-82
2023/03/03 02:16:17;;;;;;;33.20;25.60;;;0.30;99.90;;;;;;5050146;28;20400;-84
2023/03/03 02:18:43;;;;;;;33.97;26.77;;;0.20;99.90;;;;;;5048603;28;20458;-82
2023/03/03 02:21:16;;;;;;;33.85;26.40;;;0.20;99.90;;;;;;5039543;28;20424;-80
2023/03/03 02:23:48;;;;;;;34.08;27.13;;;0.30;99.90;;;;;;5030565;28;20862;-80
2023/03/03 02:26:23;;;;;;;37.70;28.85;;;0.20;99.90;;;;;;5025154;28;20850;-82
2023/03/03 02:28:49;;;;;;;34.10;27.48;;;-0.30;99.90;;;;;;5009008;28;20896;-83
2023/03/03 02:31:18;;;;;;;42.38;30.08;;;0.00;99.90;;;;;;5008863;28;20770;-80
2023/03/03 02:33:47;;;;;;;37.60;28.40;;;0.00;99.90;;;;;;5009523;28;20375;-83
2023/03/03 02:36:24;;;;;;;41.63;29.43;;;0.20;99.90;;;;;;5012851;28;20465;-82
2023/03/03 02:39:11;;;;;;;39.28;29.63;;;0.10;99.90;;;;;;5027877;28;20388;-83
2023/03/03 02:42:01;;;;;;;36.88;27.98;;;0.20;99.90;;;;;;5028841;28;20416;-80
2023/03/03 02:44:29;;;;;;;45.92;31.38;;;0.10;99.90;;;;;;5014646;28;20395;-80
2023/03/03 02:46:56;;;;;;;43.83;31.33;;;0.00;99.90;;;;;;5009355;28;20387;-80
2023/03/03 02:49:25;;;;;;;47.58;31.90;;;0.10;99.90;;;;;;5045504;28;20403;-83
2023/03/03 02:51:52;;;;;;;46.63;33.13;;;0.00;99.90;;;;;;5035040;28;20374;-82
2023/03/03 02:54:20;;;;;;;43.60;30.42;;;0.00;99.90;;;;;;5028318;28;20396;-83
2023/03/03 02:56:46;;;;;;;44.30;31.33;;;-0.10;99.90;;;;;;5027313;28;20409;-82
2023/03/03 02:59:12;;;;;;;46.70;32.65;;;0.20;99.90;;;;;;5027447;28;20455;-83
2023/03/03 03:01:38;;;;;;;48.50;32.80;;;0.40;99.90;;;;;;5020611;28;20444;-83
2023/03/03 03:04:13;;;;;;;48.55;33.63;;;0.10;99.90;;;;;;5025893;28;20780;-84
2023/03/03 03:06:39;;;;;;;49.15;32.97;;;0.20;99.90;;;;;;5014766;28;21076;-83
2023/03/03 03:09:07;;;;;;;48.30;33.40;;;0.30;99.90;;;;;;4988621;28;20459;-81
2023/03/03 03:11:34;;;;;;;46.20;31.58;;;0.30;99.90;;;;;;5003566;28;20386;-80
2023/03/03 03:14:00;;;;;;;44.22;30.73;;;0.20;99.90;;;;;;4999793;28;20409;-82
2023/03/03 03:16:26;;;;;;;44.63;30.17;;;0.10;99.90;;;;;;5000100;28;20409;-83
2023/03/03 03:18:52;;;;;;;48.97;31.17;;;-0.10;99.90;;;;;;5000619;28;21127;-81
2023/03/03 03:21:17;;;;;;;44.50;30.30;;;-0.10;99.90;;;;;;5001669;28;20480;-82
2023/03/03 03:23:43;;;;;;;52.83;31.70;;;0.10;99.90;;;;;;4999797;28;20405;-79
2023/03/03 03:26:10;;;;;;;46.92;28.92;;;0.20;99.90;;;;;;5002054;28;20484;-82
2023/03/03 03:28:36;;;;;;;42.83;28.17;;;0.00;99.90;;;;;;5001263;28;20415;-80
2023/03/03 03:31:03;;;;;;;51.95;30.10;;;-0.10;99.90;;;;;;5011069;28;20422;-82
2023/03/03 03:33:28;;;;;;;46.90;30.83;;;-0.10;99.90;;;;;;5006879;28;20458;-81
2023/03/03 03:35:55;;;;;;;42.75;29.63;;;-0.10;99.90;;;;;;5018867;28;20413;-80
2023/03/03 03:38:22;;;;;;;50.80;31.42;;;-0.20;99.90;;;;;;5026036;28;20918;-82
2023/03/03 03:40:47;;;;;;;46.47;31.13;;;-0.30;99.90;;;;;;5026888;28;20420;-82
2023/03/03 03:43:13;;;;;;;43.77;29.70;;;-0.10;99.90;;;;;;5027185;28;20401;-79
2023/03/03 03:45:41;;;;;;;49.67;30.17;;;0.00;99.90;;;;;;5031010;28;20384;-82
2023/03/03 03:48:07;;;;;;;46.92;28.33;;;0.00;99.90;;;;;;5029951;28;20401;-81
2023/03/03 03:50:33;;;;;;;42.92;27.80;;;-0.10;99.90;;;;;;5025837;28;20762;-80
2023/03/03 03:52:58;;;;;;;38.22;25.90;;;-0.10;99.90;;;;;;5030042;28;20701;-83
2023/03/03 03:55:24;;;;;;;38.15;25.08;;;-0.20;99.90;;;;;;5031475;28;20378;-81
2023/03/03 03:57:50;;;;;;;40.43;26.20;;;-0.30;99.90;;;;;;5030407;28;20775;-80
2023/03/03 04:00:16;;;;;;;38.57;25.50;;;-0.40;99.90;;;;;;5031293;28;20397;-80
2023/03/03 04:02:42;;;;;;;44.75;26.67;;;-0.30;99.90;;;;;;5016500;28;20425;-82
2023/03/03 04:05:07;;;;;;;48.83;27.20;;;-0.30;99.90;;;;;;5031540;28;20378;-81
2023/03/03 04:07:33;;;;;;;42.65;27.75;;;-0.40;99.90;;;;;;5029662;28;20377;-80
2023/03/03 04:09:59;;;;;;;49.60;29.95;;;-0.40;99.90;;;;;;5026941;28;20433;-82
2023/03/03 04:12:25;;;;;;;46.38;28.70;;;-0.40;99.90;;;;;;5020821;28;20402;-81
2023/03/03 04:14:50;;;;;;;47.47;28.00;;;-0.40;99.90;;;;;;5016997;28;21047;-80
2023/03/03 04:17:18;;;;;;;62.90;30.17;;;-0.20;99.90;;;;;;5049327;28;20633;-82
2023/03/03 04:19:44;;;;;;;47.27;28.97;;;-0.20;99.90;;;;;;5041676;28;20472;-80
2023/03/03 04:22:11;;;;;;;50.20;29.38;;;-0.30;99.90;;;;;;5030924;28;20369;-81
2023/03/03 04:24:37;;;;;;;41.35;27.60;;;-0.20;99.90;;;;;;5030899;28;20464;-80
2023/03/03 04:27:03;;;;;;;60.05;30.83;;;-0.10;99.90;;;;;;5010554;28;20386;-83
2023/03/03 04:29:29;;;;;;;54.33;30.17;;;0.10;99.90;;;;;;5010739;28;20917;-79
2023/03/03 04:31:55;;;;;;;47.37;28.23;;;-0.20;99.90;;;;;;5026125;28;20470;-81
2023/03/03 04:34:20;;;;;;;52.13;29.17;;;-0.40;99.90;;;;;;5050413;28;20395;-81
2023/03/03 04:36:46;;;;;;;48.00;28.33;;;-0.60;99.90;;;;;;5050330;28;20754;-82
2023/03/03 04:39:12;;;;;;;56.10;30.93;;;-0.50;99.90;;;;;;5050268;28;20387;-81
2023/03/03 04:41:37;;;;;;;48.30;29.30;;;-0.60;99.90;;;;;;5050238;28;20893;-80
2023/03/03 04:44:03;;;;;;;52.10;29.30;;;-0.50;99.90;;;;;;5011097;28;20387;-81
2023/03/03 04:46:29;;;;;;;49.77;28.57;;;-0.40;99.90;;;;;;5010060;28;20464;-79
2023/03/03 04:48:55;;;;;;;56.78;31.85;;;-0.40;99.90;;;;;;5010751;28;20383;-80
2023/03/03 04:51:21;;;;;;;76.57;36.13;;;-0.40;99.90;;;;;;5008881;28;20391;-80
2023/03/03 04:53:47;;;;;;;65.80;34.08;;;-0.50;99.90;;;;;;5010451;28;20953;-80
2023/03/03 04:56:14;;;;;;;83.15;38.40;;;-0.40;99.90;;;;;;5009287;28;20439;-79
2023/03/03 04:58:39;;;;;;;96.03;40.30;;;-0.40;99.90;;;;;;5009235;28;20776;-80
2023/03/03 05:01:05;;;;;;;106.90;43.08;;;-0.50;99.90;;;;;;5010704;28;20375;-80
2023/03/03 05:03:31;;;;;;;82.55;39.60;;;-0.50;99.90;;;;;;5009543;28;21110;-81
2023/03/03 05:05:56;;;;;;;76.87;39.73;;;-0.30;99.90;;;;;;5009157;28;21086;-80
2023/03/03 05:08:22;;;;;;;74.37;38.43;;;-0.40;99.90;;;;;;5023036;28;20380;-82
2023/03/03 05:10:53;;;;;;;71.88;37.90;;;-0.40;99.90;;;;;;5048850;28;20412;-81
2023/03/03 05:13:19;;;;;;;80.93;40.22;;;-0.40;99.90;;;;;;5043398;28;20424;-81
2023/03/03 05:15:55;;;;;;;65.87;36.00;;;-0.40;99.90;;;;;;5026840;28;20429;-83
2023/03/03 05:18:22;;;;;;;72.27;38.37;;;-0.40;99.90;;;;;;5026436;28;21128;-84
2023/03/03 05:20:49;;;;;;;88.28;39.33;;;-0.60;99.90;;;;;;5026301;28;20405;-81
2023/03/03 05:23:15;;;;;;;70.28;34.65;;;-0.50;99.90;;;;;;5028594;28;20416;-82
2023/03/03 05:25:41;;;;;;;63.83;34.72;;;-0.50;99.90;;;;;;5026789;28;20880;-81
2023/03/03 05:28:07;;;;;;;83.07;39.00;;;-0.30;99.90;;;;;;5028842;28;20405;-80
2023/03/03 05:30:33;;;;;;;70.77;37.63;;;-0.50;99.90;;;;;;5021762;28;20869;-80
2023/03/03 05:33:00;;;;;;;83.30;39.85;;;-0.50;99.90;;;;;;5009769;28;20437;-83
2023/03/03 05:35:25;;;;;;;77.57;38.88;;;-0.50;99.90;;;;;;5039317;28;20490;-82
2023/03/03 05:37:51;;;;;;;75.03;38.85;;;-0.30;99.90;;;;;;5048392;28;20467;-81
2023/03/03 05:40:17;;;;;;;72.95;37.90;;;-0.30;99.90;;;;;;5032008;28;20393;-81
2023/03/03 05:42:43;;;;;;;65.10;32.75;;;-0.20;99.90;;;;;;5029935;28;20776;-83
2023/03/03 05:45:09;;;;;;;68.57;31.67;;;-0.20;99.90;;;;;;5029317;28;20378;-80
2023/03/03 05:47:35;;;;;;;62.03;32.08;;;-0.30;99.90;;;;;;5028991;28;20396;-82
2023/03/03 05:50:01;;;;;;;61.42;31.38;;;-0.40;99.90;;;;;;5027216;28;20381;-81
2023/03/03 05:52:27;;;;;;;63.50;32.13;;;-0.30;99.90;;;;;;5043940;28;20567;-80
2023/03/03 05:54:52;;;;;;;64.18;33.55;;;-0.50;99.90;;;;;;5049759;28;20418;-79
2023/03/03 05:57:18;;;;;;;63.60;32.78;;;-0.60;99.90;;;;;;5048828;28;20742;-81
2023/03/03 05:59:44;;;;;;;65.00;33.20;;;-0.50;99.90;;;;;;5048359;28;20383;-80
2023/03/03 06:02:09;;;;;;;66.57;32.67;;;-0.50;99.90;;;;;;5049424;28;20399;-84
2023/03/03 06:04:35;;;;;;;61.33;31.70;;;-0.50;99.90;;;;;;5049797;28;20410;-81
2023/03/03 06:07:01;;;;;;;65.45;32.70;;;-0.40;99.90;;;;;;5040938;28;20876;-81
2023/03/03 06:09:26;;;;;;;65.15;32.78;;;-0.50;99.90;;;;;;5008954;28;20380;-82
2023/03/03 06:11:52;;;;;;;57.70;30.53;;;-0.50;99.90;;;;;;5008445;28;20387;-81
2023/03/03 06:14:21;;;;;;;42.73;26.20;;;-0.20;99.90;;;;;;5007787;28;20394;-82
2023/03/03 06:16:48;;;;;;;50.47;27.15;;;-0.20;99.90;;;;;;5008299;28;20464;-82
2023/03/03 06:19:14;;;;;;;45.40;25.63;;;-0.30;99.90;;;;;;5009203;28;20386;-83
2023/03/03 06:21:40;;;;;;;43.43;25.40;;;-0.30;99.90;;;;;;5028363;28;21401;-82
2023/03/03 06:24:06;;;;;;;44.42;24.85;;;-0.10;99.90;;;;;;5025417;28;20391;-83
2023/03/03 06:26:32;;;;;;;44.20;24.33;;;-0.10;99.90;;;;;;5008029;28;20390;-82
2023/03/03 06:28:58;;;;;;;41.20;24.00;;;-0.10;99.90;;;;;;5025752;28;20747;-82
2023/03/03 06:31:24;;;;;;;41.80;24.13;;;-0.10;99.90;;;;;;5027736;28;20435;-83
2023/03/03 06:33:50;;;;;;;36.70;22.30;;;-0.20;99.90;;;;;;5028005;28;20424;-81
2023/03/03 06:36:16;;;;;;;33.78;21.65;;;0.00;99.90;;;;;;5028531;28;20440;-80
2023/03/03 06:38:42;;;;;;;57.20;25.40;;;-0.10;99.90;;;;;;5027549;28;20397;-81
2023/03/03 06:41:08;;;;;;;40.65;24.23;;;-0.20;99.90;;;;;;5024304;28;20386;-81
2023/03/03 06:43:35;;;;;;;42.80;22.85;;;-0.30;99.90;;;;;;5008472;28;20742;-83
2023/03/03 06:46:01;;;;;;;41.50;23.17;;;-0.20;99.90;;;;;;5036731;28;20419;-79
2023/03/03 06:48:28;;;;;;;41.35;23.73;;;-0.20;99.90;;;;;;5047122;28;20730;-81
2023/03/03 06:50:54;;;;;;;51.40;24.80;;;-0.30;99.90;;;;;;5031741;28;20522;-82
2023/03/03 06:53:19;;;;;;;48.03;25.10;;;-0.30;99.90;;;;;;5027045;28;20472;-83
2023/03/03 06:55:45;;;;;;;42.10;23.97;;;-0.20;99.90;;;;;;5027328;28;20492;-82
2023/03/03 06:58:16;;;;;;;40.65;23.75;;;-0.30;99.90;;;;;;5022367;28;20878;-81
2023/03/03 07:00:59;;;;;;;42.23;23.53;;;-0.10;99.90;;;;;;5008057;28;20376;-82
2023/03/03 07:03:31;;;;;;;35.67;21.88;;;-0.10;99.90;;;;;;5008492;28;20943;-83
2023/03/03 07:05:57;;;;;;;34.78;21.05;;;-0.20;99.90;;;;;;5008048;28;20407;-83
2023/03/03 07:08:23;;;;;;;31.63;19.83;;;-0.10;99.90;;;;;;5006531;28;20501;-82
2023/03/03 07:10:51;;;;;;;37.65;21.63;;;0.10;99.90;;;;;;5008034;28;20885;-83
2023/03/03 07:13:25;;;;;;;39.33;22.15;;;0.00;99.90;;;;;;5007933;28;20395;-83
2023/03/03 07:15:52;;;;;;;35.17;21.35;;;0.20;99.90;;;;;;5007988;28;20730;-85
2023/03/03 07:18:33;;;;;;;31.33;20.40;;;0.30;99.90;;;;;;5008132;28;20379;-83
2023/03/03 07:21:17;;;;;;;34.83;21.35;;;0.30;99.90;;;;;;5011655;28;20391;-82
2023/03/03 07:23:44;;;;;;;30.00;19.45;;;0.40;99.90;;;;;;5011838;28;20383;-82
2023/03/03 07:26:23;;;;;;;31.20;19.60;;;0.30;99.90;;;;;;5012147;28;20474;-81
2023/03/03 07:28:57;;;;;;;27.45;17.58;;;0.30;99.90;;;;;;5044316;28;20375;-81
2023/03/03 07:31:30;;;;;;;22.98;16.13;;;0.50;99.90;;;;;;5038756;28;20384;-81
2023/03/03 07:33:58;;;;;;;27.98;18.73;;;0.60;99.90;;;;;;5021353;28;20435;-82
2023/03/03 07:36:36;;;;;;;28.83;17.88;;;0.50;99.90;;;;;;5023087;28;20424;-84
2023/03/03 07:39:29;;;;;;;26.58;18.02;;;0.50;99.90;;;;;;5021004;28;20397;-82
2023/03/03 07:42:13;;;;;;;29.00;19.38;;;0.70;99.90;;;;;;5035120;28;20416;-82
2023/03/03 07:44:40;;;;;;;28.40;18.87;;;0.80;99.90;;;;;;5032962;28;20389;-82
2023/03/03 07:47:28;;;;;;;30.10;20.10;;;0.70;99.90;;;;;;5029477;28;20437;-81
2023/03/03 07:50:00;;;;;;;28.67;18.55;;;0.60;99.90;;;;;;5017503;28;20495;-81
2023/03/03 07:52:38;;;;;;;26.50;18.80;;;0.50;99.90;;;;;;5032309;28;20396;-81
2023/03/03 07:55:22;;;;;;;25.55;19.00;;;0.60;99.90;;;;;;5034340;28;20409;-82
2023/03/03 07:57:53;;;;;;;25.48;17.95;;;0.90;99.90;;;;;;5024399;28;20424;-81
2023/03/03 08:00:25;;;;;;;27.75;18.95;;;0.90;99.90;;;;;;5035917;28;20387;-82
2023/03/03 08:03:02;;;;;;;33.35;21.08;;;0.90;99.90;;;;;;5034936;28;20389;-82
2023/03/03 08:05:45;;;;;;;29.92;20.00;;;0.80;99.90;;;;;;5030013;28;20386;-82
2023/03/03 08:08:15;;;;;;;30.77;20.50;;;0.80;99.90;;;;;;5028579;28;20468;-83
2023/03/03 08:10:51;;;;;;;39.90;30.17;;;0.80;99.90;;;;;;5028826;28;21618;-82
2023/03/03 08:13:27;;;;;;;30.13;20.50;;;0.80;99.90;;;;;;5030291;28;20866;-82
2023/03/03 08:16:08;;;;;;;27.05;18.52;;;1.00;99.90;;;;;;5030050;28;20407;-80
2023/03/03 08:18:37;;;;;;;29.55;21.90;;;0.70;99.90;;;;;;5034312;28;20396;-83
2023/03/03 08:21:09;;;;;;;26.00;19.20;;;1.00;99.90;;;;;;5032225;28;20925;-78
2023/03/03 08:23:34;;;;;;;25.60;19.23;;;1.10;99.90;;;;;;5029839;28;20887;-82
2023/03/03 08:26:00;;;;;;;23.58;17.65;;;1.40;99.90;;;;;;5018885;28;20415;-82
2023/03/03 08:28:27;;;;;;;29.80;21.58;;;1.40;99.90;;;;;;5011046;28;20411;-82
2023/03/03 08:30:52;;;;;;;25.70;18.10;;;1.60;99.90;;;;;;5024838;28;20393;-82
2023/03/03 08:33:18;;;;;;;24.85;17.90;;;1.50;99.90;;;;;;5032520;28;20448;-84
2023/03/03 08:35:44;;;;;;;26.77;18.67;;;1.50;99.90;;;;;;5030791;28;20763;-84
2023/03/03 08:38:11;;;;;;;23.90;17.05;;;1.40;99.90;;;;;;5030865;28;21168;-82
2023/03/03 08:40:38;;;;;;;24.95;16.77;;;1.40;99.90;;;;;;5022132;28;20387;-84
2023/03/03 08:43:05;;;;;;;24.30;17.63;;;1.40;99.90;;;;;;5022573;28;20732;-83
2023/03/03 08:45:32;;;;;;;25.63;18.33;;;1.40;99.90;;;;;;5031532;28;20441;-84
2023/03/03 08:47:58;;;;;;;24.92;18.20;;;1.50;99.90;;;;;;5026873;28;20409;-81
2023/03/03 08:50:24;;;;;;;27.88;19.02;;;1.30;99.90;;;;;;5030170;28;20385;-82
2023/03/03 08:52:50;;;;;;;25.77;18.00;;;1.30;99.90;;;;;;5032912;28;20424;-81
2023/03/03 08:55:16;;;;;;;27.48;18.83;;;1.50;99.90;;;;;;5031432;28;20413;-81
2023/03/03 08:57:42;;;;;;;28.40;19.80;;;1.70;99.90;;;;;;5030918;28;20880;-81
2023/03/03 09:00:11;;;;;;;24.38;17.63;;;1.90;99.90;;;;;;5028523;28;20477;-82
2023/03/03 09:02:37;;;;;;;25.50;18.45;;;1.90;99.90;;;;;;5030320;28;20390;-83
2023/03/03 09:05:03;;;;;;;26.73;18.98;;;2.00;99.90;;;;;;5027800;28;20400;-82
2023/03/03 09:07:29;;;;;;;34.40;26.97;;;2.10;99.90;;;;;;5030324;28;20385;-82
2023/03/03 09:09:54;;;;;;;25.80;17.87;;;2.10;99.90;;;;;;5031882;28;20883;-83
2023/03/03 09:12:35;;;;;;;26.67;18.93;;;2.30;99.90;;;;;;5028584;28;20446;-83
2023/03/03 09:15:24;;;;;;;30.08;20.35;;;2.20;99.90;;;;;;5025352;28;20396;-82
2023/03/03 09:17:51;;;;;;;33.43;21.87;;;2.10;99.90;;;;;;5029747;28;20439;-83
2023/03/03 09:20:26;;;;;;;34.97;22.70;;;2.00;99.90;;;;;;5023970;28;20401;-82
2023/03/03 09:22:52;;;;;;;34.53;23.02;;;2.00;99.90;;;;;;5021860;28;20400;-83
2023/03/03 09:25:38;;;;;;;34.45;22.27;;;2.00;99.90;;;;;;5029611;28;20880;-84
2023/03/03 09:28:20;;;;;;;33.88;22.40;;;2.00;99.90;;;;;;5009277;28;20486;-81
2023/03/03 09:30:49;;;;;;;31.08;20.27;;;2.10;99.90;;;;;;5010501;28;20869;-82
2023/03/03 09:33:32;;;;;;;29.20;20.40;;;2.00;99.90;;;;;;5011590;28;20445;-83
2023/03/03 09:36:11;;;;;;;32.53;22.67;;;2.00;99.90;;;;;;5026876;28;20417;-81
2023/03/03 09:38:43;;;;;;;30.30;21.30;;;2.00;99.90;;;;;;5029073;28;20406;-83
2023/03/03 09:41:33;;;;;;;32.22;22.20;;;2.10;99.90;;;;;;5029600;28;20895;-82
2023/03/03 09:44:37;;;;;;;36.97;23.98;;;2.20;99.90;;;;;;5026161;28;20484;-83
2023/03/03 09:47:35;;;;;;;38.67;27.85;;;2.20;99.90;;;;;;5006634;28;20491;-83
2023/03/03 09:50:29;;;;;;;33.72;23.35;;;2.20;99.90;;;;;;5007134;28;20785;-84
2023/03/03 09:53:32;;;;;;;34.28;23.30;;;2.10;99.90;;;;;;5027173;28;20421;-84
2023/03/03 09:56:21;;;;;;;34.93;24.17;;;2.20;99.90;;;;;;5028396;28;20764;-82
2023/03/03 09:59:04;;;;;;;32.72;23.30;;;2.10;99.90;;;;;;5013535;28;20439;-83
2023/03/03 10:02:16;;;;;;;30.20;22.52;;;2.30;99.90;;;;;;5012544;28;20406;-85
2023/03/03 10:04:59;;;;;;;32.40;22.00;;;2.70;99.90;;;;;;5009797;28;20458;-83
2023/03/03 10:07:37;;;;;;;33.78;23.25;;;2.70;99.90;;;;;;5011928;28;21025;-86
2023/03/03 10:10:09;;;;;;;33.47;23.63;;;2.50;99.90;;;;;;5026539;28;20938;-83
2023/03/03 10:13:14;;;;;;;35.25;24.45;;;2.40;99.90;;;;;;5029260;28;20668;-82
2023/03/03 10:15:42;;;;;;;36.85;24.40;;;2.30;99.90;;;;;;5029162;28;20369;-81
2023/03/03 10:18:14;;;;;;;34.67;23.47;;;2.40;99.90;;;;;;5027886;28;20409;-81
2023/03/03 10:21:15;;;;;;;34.78;22.98;;;2.40;99.90;;;;;;5007851;28;20379;-83
2023/03/03 10:24:20;;;;;;;37.55;25.75;;;2.40;99.90;;;;;;5019351;28;20394;-82
2023/03/03 10:27:10;;;;;;;36.67;24.93;;;2.80;99.90;;;;;;5030997;28;20876;-84
2023/03/03 10:30:09;;;;;;;37.80;25.37;;;2.70;99.90;;;;;;5015926;28;20504;-82
2023/03/03 10:33:03;;;;;;;31.23;21.75;;;2.50;99.90;;;;;;5015185;28;20466;-82
2023/03/03 10:35:31;;;;;;;31.70;22.02;;;2.60;99.90;;;;;;5026762;28;20386;-81
2023/03/03 10:38:06;;;;;;;34.92;24.40;;;2.70;99.90;;;;;;5029066;28;20397;-84
2023/03/03 10:40:55;;;;;;;31.60;23.23;;;2.90;99.90;;;;;;5028422;28;20484;-83
2023/03/03 10:43:27;;;;;;;30.50;21.95;;;3.10;99.90;;;;;;5018913;28;20373;-82
2023/03/03 10:46:16;;;;;;;34.85;23.60;;;3.20;99.90;;;;;;5027695;28;20390;-81
2023/03/03 10:49:00;;;;;;;35.33;22.70;;;3.20;99.90;;;;;;5018025;28;20411;-83
2023/03/03 10:51:31;;;;;;;34.88;23.88;;;3.30;99.90;;;;;;5027724;28;20402;-84
2023/03/03 10:54:25;;;;;;;31.52;22.42;;;3.00;99.90;;;;;;5027614;28;20575;-84
2023/03/03 10:57:04;;;;;;;34.17;25.00;;;3.10;99.90;;;;;;5026098;28;20410;-81
2023/03/03 10:59:41;;;;;;;126.80;79.70;;;3.40;99.90;;;;;;5029294;28;20751;-82
2023/03/03 11:02:46;;;;;;;118.88;75.57;;;3.40;99.90;;;;;;5025788;28;20405;-82
2023/03/03 11:05:53;;;;;;;35.53;24.63;;;3.20;99.90;;;;;;5009099;28;20389;-83
2023/03/03 11:08:40;;;;;;;33.90;23.10;;;3.20;99.90;;;;;;5026863;28;20417;-82
2023/03/03 11:11:24;;;;;;;37.38;26.17;;;2.90;99.90;;;;;;5030784;28;20386;-85
2023/03/03 11:13:57;;;;;;;34.80;24.10;;;2.90;99.90;;;;;;5031288;28;20559;-83
2023/03/03 11:16:54;;;;;;;38.13;27.33;;;3.00;99.90;;;;;;5032223;28;20392;-84
2023/03/03 11:19:57;;;;;;;38.58;29.05;;;3.20;99.90;;;;;;5030573;28;20389;-81
2023/03/03 11:22:47;;;;;;;38.95;28.35;;;3.10;99.90;;;;;;5029576;28;20401;-82
2023/03/03 11:25:21;;;;;;;35.13;26.53;;;3.20;99.90;;;;;;5030722;28;20378;-85
2023/03/03 11:27:50;;;;;;;33.15;24.65;;;3.20;99.90;;;;;;5032090;28;20389;-85
2023/03/03 11:30:50;;;;;;;44.78;31.88;;;3.30;99.90;;;;;;5028905;28;20431;-85
2023/03/03 11:33:38;;;;;;;55.00;38.28;;;3.40;99.90;;;;;;5030298;28;20471;-82
2023/03/03 11:36:12;;;;;;;36.13;26.50;;;3.80;99.90;;;;;;5030873;28;20405;-83
2023/03/03 11:38:53;;;;;;;32.28;23.23;;;3.90;99.90;;;;;;5030316;28;20377;-82
2023/03/03 11:41:44;;;;;;;31.10;21.10;;;3.90;99.90;;;;;;5028384;28;20413;-86
2023/03/03 11:44:50;;;;;;;35.23;23.60;;;3.70;99.90;;;;;;5009796;28;20407;-85
2023/03/03 11:47:45;;;;;;;37.40;25.33;;;3.80;99.90;;;;;;5008185;28;20838;-82
2023/03/03 11:50:20;;;;;;;41.92;29.00;;;3.60;99.90;;;;;;5007976;28;20500;-83
2023/03/03 11:52:54;;;;;;;31.45;22.95;;;3.70;99.90;;;;;;5010388;28;20406;-83
2023/03/03 11:55:39;;;;;;;30.23;22.00;;;3.80;99.90;;;;;;5010956;28;20434;-84
2023/03/03 11:58:19;;;;;;;29.13;21.90;;;3.80;99.90;;;;;;5010360;28;20708;-82
2023/03/03 12:01:08;;;;;;;28.80;20.70;;;3.90;99.90;;;;;;5016636;28;20409;-83
2023/03/03 12:03:49;;;;;;;25.38;18.75;;;3.80;99.90;;;;;;5010696;28;20472;-84
2023/03/03 12:06:39;;;;;;;24.57;18.77;;;3.60;99.90;;;;;;5012153;28;20524;-82
2023/03/03 12:09:34;;;;;;;26.45;20.02;;;3.80;99.90;;;;;;5018833;28;20401;-84
2023/03/03 12:12:19;;;;;;;28.87;21.27;;;3.80;99.90;;;;;;5027746;28;20377;-83
2023/03/03 12:14:57;;;;;;;28.85;21.00;;;3.90;99.90;;;;;;5033303;28;20374;-85
2023/03/03 12:17:40;;;;;;;29.35;21.30;;;4.00;99.90;;;;;;5035353;28;20413;-85
2023/03/03 12:20:12;;;;;;;28.42;21.50;;;4.00;99.90;;;;;;5036708;28;20385;-83
2023/03/03 12:23:05;;;;;;;29.35;21.73;;;4.00;99.90;;;;;;5033610;28;20705;-82
2023/03/03 12:26:02;;;;;;;30.20;23.15;;;4.00;99.90;;;;;;5036191;28;20389;-83
2023/03/03 12:28:37;;;;;;;31.77;23.50;;;4.00;99.90;;;;;;5032662;28;20868;-83
2023/03/03 12:31:18;;;;;;;37.08;25.10;;;3.90;99.90;;;;;;5021029;28;20844;-83
2023/03/03 12:34:40;;;;;;;35.50;25.17;;;3.80;99.90;;;;;;5032468;28;20851;-84
2023/03/03 12:37:14;;;;;;;31.63;23.10;;;4.00;99.90;;;;;;4991662;28;20419;-85
2023/03/03 12:40:13;;;;;;;29.70;23.15;;;4.20;99.90;;;;;;5031478;28;20465;-83
2023/03/03 12:42:48;;;;;;;28.52;22.33;;;4.30;99.90;;;;;;5010412;28;20426;-82
2023/03/03 12:45:42;;;;;;;29.77;22.70;;;4.40;99.90;;;;;;5010612;28;20465;-85
2023/03/03 12:48:29;;;;;;;29.98;23.20;;;4.30;99.90;;;;;;5019228;28;20407;-83
2023/03/03 12:51:00;;;;;;;31.23;23.17;;;4.20;99.90;;;;;;5025712;28;20424;-83
2023/03/03 12:54:03;;;;;;;33.60;25.40;;;4.00;99.90;;;;;;5028110;28;20938;-84
2023/03/03 12:56:43;;;;;;;29.77;22.08;;;4.20;99.90;;;;;;5025795;28;20440;-84
2023/03/03 12:59:34;;;;;;;31.23;23.25;;;4.20;99.90;;;;;;5032395;28;20397;-82
2023/03/03 13:02:22;;;;;;;30.35;22.48;;;4.10;99.90;;;;;;5019399;28;20530;-83
2023/03/03 13:05:10;;;;;;;29.98;22.02;;;4.10;99.90;;;;;;5027616;28;20428;-84